createdAt,value
2023-02-18T00:01:29.347Z,3.70
2023-02-18T00:03:58.009Z,3.70
2023-02-18T00:06:28.007Z,4.27
2023-02-18T00:08:55.470Z,3.47
2023-02-18T00:11:23.461Z,3.28
2023-02-18T00:13:52.567Z,3.03
2023-02-18T00:16:20.622Z,2.63
2023-02-18T00:18:48.105Z,2.83
2023-02-18T00:21:15.512Z,2.67
2023-02-18T00:23:44.016Z,4.70
2023-02-18T00:26:15.317Z,2.58
2023-02-18T00:28:43.182Z,2.42
2023-02-18T00:31:16.850Z,2.20
2023-02-18T00:33:44.491Z,2.22
2023-02-18T00:36:14.357Z,2.55
2023-02-18T00:38:48.767Z,2.28
2023-02-18T00:41:16.562Z,2.22
2023-02-18T00:43:44.124Z,2.42
2023-02-18T00:46:11.776Z,2.33
2023-02-18T00:48:39.204Z,2.28
2023-02-18T00:51:07.416Z,1.90
2023-02-18T00:53:35.166Z,2.10
2023-02-18T00:56:02.412Z,1.70
2023-02-18T00:58:30.079Z,1.73
2023-02-18T01:00:57.593Z,1.90
2023-02-18T01:03:25.096Z,1.73
2023-02-18T01:05:52.769Z,1.60
2023-02-18T01:08:21.221Z,1.50
2023-02-18T01:10:50.366Z,1.70
2023-02-18T01:13:17.677Z,1.70
2023-02-18T01:15:46.511Z,1.60
2023-02-18T01:18:14.148Z,1.67
2023-02-18T01:20:43.321Z,1.40
2023-02-18T01:23:11.078Z,1.58
2023-02-18T01:25:38.998Z,1.77
2023-02-18T01:28:08.440Z,1.42
2023-02-18T01:30:36.092Z,1.20
2023-02-18T01:33:03.380Z,1.00
2023-02-18T01:35:30.730Z,1.10
2023-02-18T01:37:57.860Z,1.15
2023-02-18T01:40:28.725Z,1.48
2023-02-18T01:42:56.301Z,1.35
2023-02-18T01:45:35.939Z,1.25
2023-02-18T01:48:26.545Z,0.98
2023-02-18T01:51:03.769Z,1.25
2023-02-18T01:53:38.610Z,1.10
2023-02-18T01:56:08.657Z,0.75
2023-02-18T01:58:36.524Z,0.90
2023-02-18T02:01:04.132Z,0.88
2023-02-18T02:03:31.371Z,1.08
2023-02-18T02:05:58.569Z,0.80
2023-02-18T02:08:25.911Z,1.15
2023-02-18T02:11:23.116Z,0.80
2023-02-18T02:13:50.300Z,0.95
2023-02-18T02:16:48.785Z,0.70
2023-02-18T02:19:55.018Z,1.23
2023-02-18T02:23:00.214Z,0.75
2023-02-18T02:25:58.257Z,0.70
2023-02-18T02:28:52.461Z,1.00
2023-02-18T02:31:37.837Z,0.70
2023-02-18T02:34:29.692Z,0.70
2023-02-18T02:37:25.849Z,0.70
2023-02-18T02:40:02.141Z,0.60
2023-02-18T02:42:54.023Z,0.47
2023-02-18T02:45:36.275Z,0.63
2023-02-18T02:48:18.794Z,0.50
2023-02-18T02:51:16.176Z,0.50
2023-02-18T02:53:43.961Z,0.50
2023-02-18T02:56:20.229Z,0.43
2023-02-18T02:58:58.441Z,0.40
2023-02-18T03:01:54.819Z,0.40
2023-02-18T03:05:07.227Z,0.77
2023-02-18T03:07:52.507Z,0.50
2023-02-18T03:10:25.843Z,0.40
2023-02-18T03:13:08.395Z,0.40
2023-02-18T03:16:04.590Z,0.30
2023-02-18T03:18:39.012Z,0.38
2023-02-18T03:21:14.170Z,0.40
2023-02-18T03:24:13.044Z,0.40
2023-02-18T03:26:45.749Z,0.40
2023-02-18T03:29:14.887Z,0.40
2023-02-18T03:31:45.192Z,0.30
2023-02-18T03:34:17.184Z,0.40
2023-02-18T03:36:44.624Z,0.25
2023-02-18T03:39:15.744Z,0.30
2023-02-18T03:41:44.179Z,0.30
2023-02-18T03:44:12.522Z,0.20
2023-02-18T03:46:43.699Z,0.30
2023-02-18T03:49:15.249Z,0.40
2023-02-18T03:54:11.334Z,0.30
2023-02-18T03:56:38.636Z,0.30
2023-02-18T03:59:05.847Z,0.30
2023-02-18T04:01:33.188Z,0.30
2023-02-18T04:04:00.519Z,0.30
2023-02-18T04:06:27.911Z,0.20
2023-02-18T04:08:55.280Z,0.25
2023-02-18T04:11:22.817Z,0.85
2023-02-18T04:13:50.068Z,0.45
2023-02-18T04:16:17.357Z,0.40
2023-02-18T04:18:44.581Z,0.30
2023-02-18T04:21:12.059Z,0.20
2023-02-18T04:23:39.231Z,0.20
2023-02-18T04:26:06.960Z,0.30
2023-02-18T04:28:34.446Z,0.20
2023-02-18T04:31:01.679Z,0.10
2023-02-18T04:33:29.022Z,0.20
2023-02-18T04:35:56.313Z,0.20
2023-02-18T04:38:23.915Z,0.40
2023-02-18T04:40:51.137Z,0.25
2023-02-18T04:43:18.319Z,0.30
2023-02-18T04:45:45.596Z,0.30
2023-02-18T04:48:12.774Z,0.13
2023-02-18T04:50:40.113Z,0.20
2023-02-18T04:53:07.265Z,0.13
2023-02-18T04:55:34.462Z,0.13
2023-02-18T04:58:01.707Z,0.15
2023-02-18T05:00:29.377Z,0.30
2023-02-18T05:02:56.874Z,0.22
2023-02-18T05:05:24.183Z,0.25
2023-02-18T05:07:51.360Z,0.10
2023-02-18T05:10:19.296Z,0.40
2023-02-18T05:12:46.473Z,0.20
2023-02-18T05:15:14.110Z,0.10
2023-02-18T05:17:41.336Z,0.10
2023-02-18T05:20:09.983Z,0.30
2023-02-18T05:22:37.523Z,0.17
2023-02-18T05:25:05.905Z,0.10
2023-02-18T05:27:33.185Z,0.20
2023-02-18T05:30:00.676Z,0.20
2023-02-18T05:32:27.949Z,0.15
2023-02-18T05:34:55.098Z,0.10
2023-02-18T05:37:22.357Z,0.85
2023-02-18T05:39:49.596Z,0.30
2023-02-18T05:42:16.882Z,0.30
2023-02-18T05:44:44.145Z,0.20
2023-02-18T05:47:12.798Z,0.20
2023-02-18T05:49:41.605Z,0.87
2023-02-18T05:52:10.381Z,0.20
2023-02-18T05:54:38.374Z,0.30
2023-02-18T05:57:05.827Z,0.38
2023-02-18T05:59:33.189Z,0.10
2023-02-18T06:02:00.846Z,0.55
2023-02-18T06:04:28.048Z,0.47
2023-02-18T06:06:55.256Z,0.20
2023-02-18T06:09:22.591Z,0.20
2023-02-18T06:11:49.836Z,0.43
2023-02-18T06:14:17.415Z,0.43
2023-02-18T06:16:44.718Z,0.63
2023-02-18T06:19:12.016Z,2.00
2023-02-18T06:21:39.145Z,1.63
2023-02-18T06:24:06.684Z,0.47
2023-02-18T06:26:34.380Z,0.40
2023-02-18T06:29:01.630Z,0.22
2023-02-18T06:31:29.333Z,0.60
2023-02-18T06:33:56.740Z,0.73
2023-02-18T06:36:24.074Z,0.65
2023-02-18T06:38:51.814Z,0.70
2023-02-18T06:41:19.086Z,2.03
2023-02-18T06:43:46.311Z,0.80
2023-02-18T06:46:13.640Z,2.63
2023-02-18T06:48:40.950Z,0.80
2023-02-18T06:51:08.227Z,0.70
2023-02-18T06:53:35.386Z,0.82
2023-02-18T06:56:02.541Z,1.38
2023-02-18T06:58:29.696Z,0.70
2023-02-18T07:00:56.927Z,0.93
2023-02-18T07:03:24.172Z,0.52
2023-02-18T07:05:51.451Z,1.15
2023-02-18T07:08:18.775Z,1.77
2023-02-18T07:10:45.936Z,1.27
2023-02-18T07:13:13.066Z,0.60
2023-02-18T07:15:40.377Z,1.38
2023-02-18T07:18:07.638Z,0.77
2023-02-18T07:20:35.093Z,0.90
2023-02-18T07:23:02.360Z,1.27
2023-02-18T07:25:29.529Z,1.85
2023-02-18T07:27:56.932Z,0.75
2023-02-18T07:30:24.210Z,2.30
2023-02-18T07:32:51.509Z,1.90
2023-02-18T07:35:19.324Z,1.38
2023-02-18T07:37:48.043Z,3.67
2023-02-18T07:40:17.557Z,5.50
2023-02-18T07:42:44.908Z,1.35
2023-02-18T07:45:13.040Z,2.17
2023-02-18T07:47:41.746Z,3.03
2023-02-18T07:50:10.976Z,4.05
2023-02-18T07:52:38.177Z,4.95
2023-02-18T07:55:05.777Z,3.80
2023-02-18T07:57:33.050Z,1.90
2023-02-18T08:00:00.321Z,3.58
2023-02-18T08:02:27.532Z,2.40
2023-02-18T08:04:54.965Z,2.40
2023-02-18T08:07:22.312Z,3.55
2023-02-18T08:09:50.887Z,3.10
2023-02-18T08:12:18.594Z,2.43
2023-02-18T08:14:45.924Z,2.25
2023-02-18T08:17:13.281Z,3.10
2023-02-18T08:19:40.700Z,2.60
2023-02-18T08:22:08.173Z,1.95
2023-02-18T08:24:35.446Z,2.60
2023-02-18T08:27:02.656Z,2.05
2023-02-18T08:29:30.316Z,2.70
2023-02-18T08:31:58.319Z,3.40
2023-02-18T08:34:26.165Z,2.72
2023-02-18T08:36:53.542Z,4.75
2023-02-18T08:39:20.975Z,3.20
2023-02-18T08:41:48.213Z,2.78
2023-02-18T08:44:15.459Z,3.47
2023-02-18T08:46:42.779Z,4.28
2023-02-18T08:49:10.102Z,1.98
2023-02-18T08:51:37.325Z,3.80
2023-02-18T08:54:04.942Z,2.85
2023-02-18T08:56:32.784Z,2.22
2023-02-18T08:59:00.121Z,2.75
2023-02-18T09:01:27.836Z,2.22
2023-02-18T09:03:55.115Z,2.40
2023-02-18T09:06:22.762Z,3.13
2023-02-18T09:08:49.977Z,3.92
2023-02-18T09:11:18.220Z,4.80
2023-02-18T09:13:45.638Z,5.75
2023-02-18T09:16:18.661Z,6.75
2023-02-18T09:18:47.163Z,6.63
2023-02-18T09:21:16.128Z,3.92
2023-02-18T09:23:43.737Z,2.85
2023-02-18T09:26:14.468Z,3.72
2023-02-18T09:28:42.081Z,1.98
2023-02-18T09:31:16.438Z,2.90
2023-02-18T09:33:46.709Z,2.92
2023-02-18T09:36:14.910Z,3.00
2023-02-18T09:38:42.120Z,2.35
2023-02-18T09:41:43.829Z,2.88
2023-02-18T09:44:22.086Z,1.77
2023-02-18T09:47:00.331Z,3.03
2023-02-18T09:49:29.814Z,2.08
2023-02-18T09:51:58.051Z,1.35
2023-02-18T09:54:26.851Z,2.55
2023-02-18T09:56:54.683Z,2.57
2023-02-18T09:59:26.000Z,2.30
2023-02-18T10:01:54.667Z,4.22
2023-02-18T10:04:35.427Z,5.80
2023-02-18T10:07:03.881Z,4.45
2023-02-18T10:09:36.478Z,4.25
2023-02-18T10:12:15.989Z,2.75
2023-02-18T10:14:51.060Z,2.58
2023-02-18T10:17:19.636Z,2.17
2023-02-18T10:19:48.708Z,3.30
2023-02-18T10:22:17.166Z,2.15
2023-02-18T10:24:51.642Z,1.30
2023-02-18T10:27:30.586Z,3.03
2023-02-18T10:30:24.946Z,6.78
2023-02-18T10:32:56.952Z,6.43
2023-02-18T10:35:58.253Z,4.20
2023-02-18T10:39:03.809Z,3.80
2023-02-18T10:41:44.428Z,1.85
2023-02-18T10:44:41.152Z,2.03
2023-02-18T10:47:21.382Z,1.65
2023-02-18T10:50:28.087Z,3.55
2023-02-18T10:52:57.556Z,2.47
2023-02-18T10:55:40.270Z,2.85
2023-02-18T10:58:33.904Z,2.63
2023-02-18T11:01:05.163Z,2.70
2023-02-18T11:03:46.769Z,4.95
2023-02-18T11:06:33.387Z,4.50
2023-02-18T11:09:01.251Z,3.25
2023-02-18T11:11:39.019Z,2.92
2023-02-18T11:17:20.142Z,3.83
2023-02-18T11:19:56.317Z,2.38
2023-02-18T11:22:30.657Z,2.65
2023-02-18T11:25:00.905Z,2.88
2023-02-18T11:27:45.964Z,2.78
2023-02-18T11:30:22.617Z,1.90
2023-02-18T11:32:52.016Z,1.65
2023-02-18T11:35:27.456Z,1.83
2023-02-18T11:37:56.308Z,1.58
2023-02-18T11:40:25.995Z,1.63
2023-02-18T11:45:32.178Z,6.82
2023-02-18T11:48:01.574Z,4.07
2023-02-18T11:50:32.873Z,2.78
2023-02-18T11:53:00.605Z,2.20
2023-02-18T11:55:31.132Z,2.33
2023-02-18T11:58:03.463Z,2.33
2023-02-18T12:00:43.709Z,1.33
2023-02-18T12:03:28.155Z,2.38
2023-02-18T12:05:57.272Z,1.73
2023-02-18T12:08:41.275Z,5.35
2023-02-18T12:11:14.967Z,3.90
2023-02-18T12:13:54.176Z,4.63
2023-02-18T12:16:58.556Z,4.95
2023-02-18T12:19:44.124Z,5.75
2023-02-18T12:22:32.546Z,11.43
2023-02-18T12:25:21.427Z,5.05
2023-02-18T12:28:00.728Z,9.93
2023-02-18T12:30:55.503Z,16.23
2023-02-18T12:34:01.062Z,29.80
2023-02-18T12:36:34.200Z,23.50
2023-02-18T12:39:20.015Z,23.77
2023-02-18T12:41:47.369Z,24.98
2023-02-18T12:44:32.490Z,23.35
2023-02-18T12:47:27.513Z,22.63
2023-02-18T12:50:22.888Z,22.23
2023-02-18T12:53:26.421Z,21.20
2023-02-18T12:56:17.946Z,27.77
2023-02-18T12:58:57.228Z,29.13
2023-02-18T13:01:34.329Z,28.92
2023-02-18T13:04:22.898Z,25.95
2023-02-18T13:07:27.055Z,25.73
2023-02-18T13:09:59.986Z,25.38
2023-02-18T13:12:30.243Z,25.92
2023-02-18T13:15:16.863Z,31.38
2023-02-18T13:17:44.709Z,36.80
2023-02-18T13:20:22.499Z,42.58
2023-02-18T13:22:50.662Z,43.85
2023-02-18T13:25:19.408Z,44.28
2023-02-18T13:27:54.673Z,47.45
2023-02-18T13:30:35.024Z,46.60
2023-02-18T13:33:12.582Z,44.55
2023-02-18T13:35:56.061Z,47.10
2023-02-18T13:38:52.038Z,43.00
2023-02-18T13:41:20.600Z,40.17
2023-02-18T13:43:48.438Z,40.63
2023-02-18T13:46:22.115Z,37.30
2023-02-18T13:49:01.470Z,35.20
2023-02-18T13:51:40.722Z,33.50
2023-02-18T13:54:17.525Z,29.20
2023-02-18T13:56:51.980Z,27.00
2023-02-18T13:59:22.327Z,24.80
2023-02-18T14:01:51.410Z,25.10
2023-02-18T14:04:43.582Z,23.35
2023-02-18T14:07:43.973Z,19.98
2023-02-18T14:10:17.454Z,18.80
2023-02-18T14:13:03.852Z,17.67
2023-02-18T14:15:31.149Z,16.42
2023-02-18T14:18:13.818Z,17.50
2023-02-18T14:20:41.037Z,14.65
2023-02-18T14:23:23.686Z,14.32
2023-02-18T14:26:05.068Z,11.95
2023-02-18T14:28:36.250Z,10.98
2023-02-18T14:31:29.813Z,11.52
2023-02-18T14:34:05.953Z,10.88
2023-02-18T14:37:00.990Z,11.13
2023-02-18T14:39:37.621Z,9.60
2023-02-18T14:42:19.958Z,10.75
2023-02-18T14:45:09.692Z,9.45
2023-02-18T14:47:50.815Z,9.30
2023-02-18T14:50:19.232Z,8.98
2023-02-18T14:52:50.150Z,9.10
2023-02-18T14:55:27.193Z,8.63
2023-02-18T14:57:55.188Z,7.30
2023-02-18T15:00:29.634Z,6.70
2023-02-18T15:02:57.028Z,6.65
2023-02-18T15:05:27.349Z,6.60
2023-02-18T15:08:00.284Z,6.28
2023-02-18T15:10:40.675Z,5.72
2023-02-18T15:13:22.381Z,6.85
2023-02-18T15:15:52.408Z,6.60
2023-02-18T15:18:41.000Z,7.20
2023-02-18T15:21:13.949Z,4.90
2023-02-18T15:23:42.097Z,5.00
2023-02-18T15:26:16.509Z,6.80
2023-02-18T15:28:56.738Z,4.90
2023-02-18T15:31:29.121Z,5.05
2023-02-18T15:33:56.668Z,4.82
2023-02-18T15:36:26.565Z,4.10
2023-02-18T15:38:54.473Z,5.10
2023-02-18T15:41:23.168Z,4.53
2023-02-18T15:44:18.934Z,4.18
2023-02-18T15:46:46.415Z,4.05
2023-02-18T15:49:16.378Z,3.53
2023-02-18T15:51:43.919Z,3.70
2023-02-18T15:54:20.312Z,3.70
2023-02-18T15:56:51.432Z,4.28
2023-02-18T15:59:26.708Z,3.75
2023-02-18T16:02:08.102Z,3.45
2023-02-18T16:04:40.217Z,3.55
2023-02-18T16:07:26.333Z,3.00
2023-02-18T16:10:20.910Z,2.90
2023-02-18T16:12:52.975Z,4.00
2023-02-18T16:15:40.141Z,2.65
2023-02-18T16:18:18.788Z,2.72
2023-02-18T16:20:55.080Z,3.08
2023-02-18T16:23:30.024Z,3.15
2023-02-18T16:25:57.303Z,2.72
2023-02-18T16:28:30.183Z,4.80
2023-02-18T16:30:57.528Z,2.40
2023-02-18T16:33:24.747Z,2.58
2023-02-18T16:35:52.013Z,3.05
2023-02-18T16:38:22.079Z,2.60
2023-02-18T16:40:49.805Z,2.55
2023-02-18T16:43:20.893Z,3.17
2023-02-18T16:45:53.440Z,7.05
2023-02-18T16:48:29.565Z,6.93
2023-02-18T16:50:57.173Z,6.65
2023-02-18T16:53:24.446Z,5.88
2023-02-18T16:55:52.011Z,6.25
2023-02-18T16:58:19.399Z,5.07
2023-02-18T17:00:47.178Z,4.78
2023-02-18T17:03:14.835Z,3.70
2023-02-18T17:05:42.230Z,3.50
2023-02-18T17:08:15.534Z,3.33
2023-02-18T17:10:42.914Z,3.40
2023-02-18T17:13:20.540Z,3.03
2023-02-18T17:15:49.232Z,2.63
2023-02-18T17:18:16.858Z,2.70
2023-02-18T17:20:44.230Z,2.78
2023-02-18T17:23:18.518Z,2.80
2023-02-18T17:25:45.849Z,2.50
2023-02-18T17:28:13.311Z,3.63
2023-02-18T17:30:41.542Z,2.10
2023-02-18T17:33:10.846Z,2.05
2023-02-18T17:35:38.060Z,2.53
2023-02-18T17:38:14.213Z,2.10
2023-02-18T17:40:41.476Z,2.15
2023-02-18T17:43:13.226Z,2.13
2023-02-18T17:45:53.354Z,1.88
2023-02-18T17:48:21.230Z,1.85
2023-02-18T17:50:48.555Z,1.85
2023-02-18T17:53:16.997Z,1.88
2023-02-18T17:55:45.740Z,1.70
2023-02-18T17:58:13.852Z,2.45
2023-02-18T18:00:50.679Z,1.60
2023-02-18T18:03:18.626Z,1.70
2023-02-18T18:05:49.128Z,1.67
2023-02-18T18:08:16.790Z,1.50
2023-02-18T18:10:55.911Z,1.60
2023-02-18T18:13:26.791Z,1.52
2023-02-18T18:15:56.806Z,1.77
2023-02-18T18:18:25.563Z,1.75
2023-02-18T18:20:55.082Z,2.72
2023-02-18T18:25:50.857Z,5.10
2023-02-18T18:28:18.368Z,4.65
2023-02-18T18:30:47.981Z,5.50
2023-02-18T18:33:31.168Z,4.55
2023-02-18T18:35:59.325Z,4.63
2023-02-18T18:38:28.269Z,3.92
2023-02-18T18:40:55.973Z,3.75
2023-02-18T18:43:31.419Z,3.70
2023-02-18T18:46:00.333Z,3.40
2023-02-18T18:48:27.860Z,3.42
2023-02-18T18:50:55.601Z,3.08
2023-02-18T18:53:25.223Z,3.08
2023-02-18T18:55:56.585Z,2.85
2023-02-18T18:58:27.017Z,2.50
2023-02-18T19:00:56.755Z,2.55
2023-02-18T19:03:25.227Z,2.30
2023-02-18T19:05:52.806Z,2.50
2023-02-18T19:08:20.673Z,2.83
2023-02-18T19:10:56.215Z,2.53
2023-02-18T19:13:29.283Z,3.50
2023-02-18T19:16:19.542Z,4.03
2023-02-18T19:18:47.618Z,4.18
2023-02-18T19:21:15.078Z,3.90
2023-02-18T19:23:42.203Z,3.28
2023-02-18T19:26:09.624Z,3.45
2023-02-18T19:28:36.786Z,3.35
2023-02-18T19:31:09.711Z,2.83
2023-02-18T19:33:39.115Z,4.18
2023-02-18T19:36:08.927Z,8.05
2023-02-18T19:38:36.348Z,3.55
2023-02-18T19:41:14.244Z,2.42
2023-02-18T19:43:44.007Z,6.63
2023-02-18T19:46:13.505Z,2.38
2023-02-18T19:48:41.153Z,2.17
2023-02-18T19:51:09.634Z,5.28
2023-02-18T19:53:37.173Z,3.67
2023-02-18T19:56:08.084Z,1.60
2023-02-18T19:58:36.215Z,1.42
2023-02-18T20:01:03.808Z,1.67
2023-02-18T20:03:31.104Z,1.95
2023-02-18T20:05:58.396Z,3.38
2023-02-18T20:08:25.577Z,3.10
2023-02-18T20:10:59.635Z,5.40
2023-02-18T20:13:27.447Z,4.88
2023-02-18T20:15:54.938Z,4.63
2023-02-18T20:18:22.243Z,5.80
2023-02-18T20:20:50.349Z,5.00
2023-02-18T20:23:17.668Z,4.63
2023-02-18T20:25:47.781Z,4.85
2023-02-18T20:28:15.836Z,3.92
2023-02-18T20:30:43.370Z,4.07
2023-02-18T20:33:11.049Z,4.00
2023-02-18T20:35:38.410Z,3.42
2023-02-18T20:38:05.744Z,3.30
2023-02-18T20:40:33.252Z,3.55
2023-02-18T20:43:00.639Z,3.47
2023-02-18T20:45:28.030Z,3.05
2023-02-18T20:47:55.247Z,3.10
2023-02-18T20:50:22.479Z,2.60
2023-02-18T20:52:49.892Z,3.00
2023-02-18T20:55:17.151Z,2.80
2023-02-18T20:57:44.339Z,3.70
2023-02-18T21:00:12.921Z,5.43
2023-02-18T21:02:40.179Z,5.30
2023-02-18T21:05:07.741Z,5.35
2023-02-18T21:07:34.965Z,4.78
2023-02-18T21:10:04.301Z,4.20
2023-02-18T21:12:31.721Z,3.50
2023-02-18T21:14:58.979Z,4.68
2023-02-18T21:17:26.270Z,3.05
2023-02-18T21:19:53.543Z,4.13
2023-02-18T21:22:20.868Z,2.95
2023-02-18T21:24:51.519Z,3.05
2023-02-18T21:27:18.715Z,2.20
2023-02-18T21:29:45.854Z,3.33
2023-02-18T21:32:13.232Z,2.10
2023-02-18T21:34:40.555Z,2.20
2023-02-18T21:37:07.831Z,2.13
2023-02-18T21:39:35.002Z,2.00
2023-02-18T21:42:04.387Z,1.80
2023-02-18T21:44:41.951Z,2.20
2023-02-18T21:47:11.051Z,1.83
2023-02-18T21:49:38.390Z,1.60
2023-02-18T21:52:08.814Z,2.20
2023-02-18T21:54:42.042Z,7.00
2023-02-18T21:57:18.253Z,8.57
2023-02-18T21:59:45.781Z,9.38
2023-02-18T22:02:20.857Z,10.85
2023-02-18T22:04:49.228Z,10.60
2023-02-18T22:07:18.012Z,10.85
2023-02-18T22:09:48.261Z,10.97
2023-02-18T22:12:16.712Z,9.93
2023-02-18T22:14:44.278Z,9.73
2023-02-18T22:17:11.510Z,8.80
2023-02-18T22:19:38.974Z,8.65
2023-02-18T22:22:06.306Z,7.90
2023-02-18T22:24:33.869Z,7.55
2023-02-18T22:27:01.584Z,7.90
2023-02-18T22:29:30.464Z,9.35
2023-02-18T22:31:57.711Z,15.98
2023-02-18T22:34:25.284Z,25.98
2023-02-18T22:36:52.522Z,36.15
2023-02-18T22:39:19.932Z,47.17
2023-02-18T22:41:47.289Z,59.60
2023-02-18T22:44:16.790Z,56.47
2023-02-18T22:46:44.083Z,59.65
2023-02-18T22:49:12.136Z,58.97
2023-02-18T22:51:41.534Z,54.53
2023-02-18T22:54:14.328Z,53.58
2023-02-18T22:56:41.702Z,50.60
2023-02-18T22:59:10.091Z,47.72
2023-02-18T23:01:40.109Z,45.85
2023-02-18T23:04:14.620Z,43.40
2023-02-18T23:06:44.226Z,39.92
2023-02-18T23:09:17.220Z,38.83
2023-02-18T23:11:44.710Z,35.25
2023-02-18T23:14:18.237Z,34.28
2023-02-18T23:17:05.303Z,31.08
2023-02-18T23:19:33.853Z,28.15
2023-02-18T23:22:01.014Z,26.52
2023-02-18T23:24:28.330Z,26.60
2023-02-18T23:26:55.720Z,24.98
2023-02-18T23:29:23.020Z,26.80
2023-02-18T23:31:50.387Z,27.25
2023-02-18T23:34:18.210Z,27.48
2023-02-18T23:36:47.426Z,25.38
2023-02-18T23:39:18.001Z,25.92
2023-02-18T23:41:45.528Z,23.35
2023-02-18T23:44:15.866Z,21.85
2023-02-18T23:46:44.691Z,21.80
2023-02-18T23:49:20.196Z,20.67
2023-02-18T23:51:47.639Z,21.10
2023-02-18T23:54:15.018Z,20.35
2023-02-18T23:56:43.670Z,18.88
2023-02-18T23:59:12.050Z,18.43
